Pirtle, Texas
Current Conditions -  °F | °C
As of 8:35 PM on Wednesday 17 Dec 2014 (Local Time) from KRFI Reporting Station
Light Rain Light Rain  
Wind Chill:   Ceiling: 2700
Heat Index:   Visibility: 7mi
Dew Point:   Wind: 3mph
Humidity: 93%   Direction: 330°NNW
Pressure: 30.18"   Gusts: NA
Location:  32.2818°N, 94.951°W
Report Text: KRFI 180235Z AUTO 33003KT 7SM -RA OVC027 07/06 A3018 RMK AO2 T00740063
Loading
Personal Weather Stations






























Interactive Weather Map New forecast layout! Learn more

10-Day Weather Forecast

Advertisements
Track Severe Weather on mobile